Blue Galaxy — SWDA — position and weather

sailwx.info

Track history (hours):
 
Tides and Currents Weather Stations Pressure Air Temp Water Temp Dewpoint Dewpoint Depression Visibility Wind Speed Wind Dir Waves Ship Positions

Blue Galaxy

Last reported at 2016-Jul-30 10:33 UTC. Time now 2016-Jul-30 20:43 UTC.
Position N 37°27' E 023°46'.

Length 192 m; draft 6.7 m.

Type: Passenger vessel. MMSI: 239672000.

Date/timePositionNaut miles runAvg speedWind from/ knotsBaromVisibWave heightAir tempDewpointWater temp
2016-Jul-30 10:33N 37°27' E 023°46'2222.5
2016-Jul-30 09:33N 37°49' E 023°38'8 8.1
2016-Jul-30 08:34N 37°57' E 023°38'0 0.0
2016-Jul-30 07:33N 37°57' E 023°38'0 0.0
2016-Jul-30 06:33N 37°57' E 023°38'0 0.0
2016-Jul-30 05:33N 37°57' E 023°38'0 0.0
2016-Jul-30 04:33N 37°57' E 023°38'0 0.0
2016-Jul-30 03:34N 37°57' E 023°38'3 2.9
2016-Jul-30 02:34N 37°54' E 023°38'2120.5
2016-Jul-30 01:34N 37°35' E 023°48'2120.7
2016-Jul-30 00:33N 37°14' E 023°51'2120.5
2016-Jul-29 23:33N 36°54' E 023°56'2120.6
2016-Jul-29 22:33N 36°34' E 023°60'40 3.5
2016-Jul-29 11:12N 37°13' E 023°49'1522.9
2016-Jul-29 10:33N 37°28' E 023°45'2222.4
2016-Jul-29 09:34N 37°49' E 023°37'8 8.1
2016-Jul-29 08:33N 37°57' E 023°38'0 0.0
2016-Jul-29 07:33N 37°57' E 023°38'0 0.0
2016-Jul-29 06:33N 37°57' E 023°38'0 0.0
2016-Jul-29 05:33N 37°57' E 023°38'0 0.0
2016-Jul-29 04:33N 37°57' E 023°38'0 0.0
2016-Jul-29 03:33N 37°57' E 023°38'6 5.7
2016-Jul-29 02:33N 37°51' E 023°39'2120.7
2016-Jul-29 01:34N 37°32' E 023°48'2020.2
2016-Jul-29 00:34N 37°12' E 023°54'2120.0
2016-Jul-28 23:32N 36°52' E 024°01'38 3.0
2016-Jul-28 10:33N 37°29' E 023°46'2222.4
2016-Jul-28 09:33N 37°50' E 023°36'7 7.5
2016-Jul-28 08:33N 37°57' E 023°38'0 0.0
2016-Jul-28 07:34N 37°57' E 023°38'0 0.0
2016-Jul-28 06:34N 37°57' E 023°38'0 0.0
2016-Jul-28 05:34N 37°57' E 023°38'0 0.0
2016-Jul-28 04:34N 37°57' E 023°38'0 0.0
2016-Jul-28 03:34N 37°57' E 023°38'1010.0
2016-Jul-28 02:34N 37°47' E 023°42'2221.6
2016-Jul-28 01:33N 37°26' E 023°49'2121.2
2016-Jul-28 00:33N 37°05' E 023°54'2221.4
2016-Jul-27 23:32N 36°44' E 023°59'28 2.3
2016-Jul-27 11:25N 37°11' E 023°51'2022.5
2016-Jul-27 10:33N 37°30' E 023°45'2222.2
2016-Jul-27 09:34N 37°51' E 023°37'6 5.5
2016-Jul-27 08:34N 37°57' E 023°38'0 0.0
2016-Jul-27 07:34N 37°57' E 023°38'0 0.0
2016-Jul-27 06:33N 37°57' E 023°38'0 0.0
2016-Jul-27 05:33N 37°57' E 023°38'0 0.0
2016-Jul-27 04:33N 37°57' E 023°38'0 0.0
2016-Jul-27 03:34N 37°57' E 023°38'6 6.3
2016-Jul-27 02:34N 37°51' E 023°40'2020.4
2016-Jul-27 01:34N 37°31' E 023°48'2020.4
2016-Jul-27 00:34N 37°11' E 023°52'2720.0
2016-Jul-26 23:14N 36°45' E 023°59'33 1.3
2016-Jul-25 21:32N 37°17' E 023°48'2020.9
2016-Jul-25 20:33N 37°37' E 023°43'1919.0
2016-Jul-25 19:33N 37°56' E 023°37'1 1.4
2016-Jul-25 18:33N 37°57' E 023°38'0 0.0
2016-Jul-25 17:33N 37°57' E 023°38'0 0.0
2016-Jul-25 16:33N 37°57' E 023°38'0 0.0
2016-Jul-25 15:33N 37°57' E 023°38'0 0.0
2016-Jul-25 14:33N 37°57' E 023°38'0 0.0
2016-Jul-25 13:33N 37°57' E 023°38'0 0.0
2016-Jul-25 12:33N 37°57' E 023°38'0 0.0
2016-Jul-25 11:33N 37°57' E 023°38'0 0.0
2016-Jul-25 10:33N 37°57' E 023°38'0 0.0
2016-Jul-25 09:33N 37°57' E 023°38'0 0.0
2016-Jul-25 08:33N 37°57' E 023°38'0 0.0
2016-Jul-25 07:33N 37°57' E 023°38'0 0.0
2016-Jul-25 06:33N 37°57' E 023°38'0 0.0
2016-Jul-25 05:33N 37°57' E 023°38'0 0.0
2016-Jul-25 04:33N 37°57' E 023°38'0 0.0
2016-Jul-25 03:33N 37°57' E 023°38'4 3.8
2016-Jul-25 02:33N 37°53' E 023°37'2020.2
2016-Jul-25 01:33N 37°34' E 023°47'2020.3
2016-Jul-25 00:33N 37°14' E 023°50'3 0.2
2016-Jul-24 11:19N 37°11' E 023°50'1722.9
2016-Jul-24 10:33N 37°28' E 023°45'2222.3
2016-Jul-24 09:34N 37°49' E 023°37'8 7.9
2016-Jul-24 08:33N 37°57' E 023°38'0 0.0
2016-Jul-24 07:33N 37°57' E 023°38'0 0.0
2016-Jul-24 06:33N 37°57' E 023°38'0 0.0
2016-Jul-24 05:33N 37°57' E 023°38'0 0.0
2016-Jul-24 04:33N 37°57' E 023°38'0 0.0
2016-Jul-24 03:33N 37°57' E 023°38'5 5.4
2016-Jul-24 02:33N 37°51' E 023°39'2020.1
2016-Jul-24 01:33N 37°33' E 023°48'2020.4
2016-Jul-24 00:33N 37°13' E 023°55'3 0.2
2016-Jul-23 11:13N 37°14' E 023°51'1522.7
2016-Jul-23 10:33N 37°28' E 023°45'2222.3
2016-Jul-23 09:33N 37°49' E 023°37'8 7.6
2016-Jul-23 08:34N 37°57' E 023°38'0 0.0
2016-Jul-23 07:34N 37°57' E 023°38'0 0.0
2016-Jul-23 06:34N 37°57' E 023°38'0 0.0
2016-Jul-23 04:34N 37°57' E 023°38'0 0.0
2016-Jul-23 03:34N 37°57' E 023°38'4 4.4
2016-Jul-23 02:34N 37°52' E 023°39'2120.9
2016-Jul-23 01:33N 37°33' E 023°47'2020.3
2016-Jul-23 00:33N 37°13' E 023°52'2120.6
2016-Jul-22 23:33N 36°52' E 023°56'20 1.7
2016-Jul-22 11:18N 37°12' E 023°49'1722.7
2016-Jul-22 10:33N 37°29' E 023°44'2222.0
2016-Jul-22 09:33N 37°49' E 023°36'8 7.6
2016-Jul-22 08:33N 37°57' E 023°38'0 0.0
2016-Jul-22 07:33N 37°57' E 023°38'0 0.0
2016-Jul-22 05:33N 37°57' E 023°38'0 0.0
2016-Jul-22 04:33N 37°57' E 023°38'0 0.0
2016-Jul-22 03:33N 37°57' E 023°38'8 8.4
2016-Jul-22 02:34N 37°49' E 023°41'2020.4
2016-Jul-22 01:33N 37°29' E 023°48'2019.7
2016-Jul-22 00:33N 37°10' E 023°53'13 0.5
2016-Jul-20 21:10N 37°22' E 023°48'1320.3
2016-Jul-20 20:33N 37°34' E 023°44'2020.1
2016-Jul-20 19:33N 37°54' E 023°37'3 3.4
2016-Jul-20 18:33N 37°57' E 023°38'0 0.0
2016-Jul-20 17:33N 37°57' E 023°38'0 0.0
2016-Jul-20 16:33N 37°57' E 023°38'0 0.0
2016-Jul-20 15:33N 37°57' E 023°38'0 0.0
2016-Jul-20 14:33N 37°57' E 023°38'0 0.0
2016-Jul-20 13:33N 37°57' E 023°38'0 0.0
2016-Jul-20 12:33N 37°57' E 023°38'0 0.0
2016-Jul-20 11:33N 37°57' E 023°38'0 0.0
2016-Jul-20 10:33N 37°57' E 023°38'  
Track history (hours):
 
Tides and Currents Weather Stations Pressure Air Temp Water Temp Dewpoint Dewpoint Depression Visibility Wind Speed Wind Dir Waves Ship Positions

Blue Galaxy

Last reported at 2016-Jul-30 10:33 UTC. Time now 2016-Jul-30 20:43 UTC.
Position N 37°27' E 023°46'.

Length 192 m; draft 6.7 m.

Type: Passenger vessel. MMSI: 239672000.

Date/timePositionNaut miles runAvg speedWind from/ knotsBaromVisibWave heightAir tempDewpointWater temp
2016-Jul-30 10:33N 37°27' E 023°46'2222.5
2016-Jul-30 09:33N 37°49' E 023°38'8 8.1
2016-Jul-30 08:34N 37°57' E 023°38'0 0.0
2016-Jul-30 07:33N 37°57' E 023°38'0 0.0
2016-Jul-30 06:33N 37°57' E 023°38'0 0.0
2016-Jul-30 05:33N 37°57' E 023°38'0 0.0
2016-Jul-30 04:33N 37°57' E 023°38'0 0.0
2016-Jul-30 03:34N 37°57' E 023°38'3 2.9
2016-Jul-30 02:34N 37°54' E 023°38'2120.5
2016-Jul-30 01:34N 37°35' E 023°48'2120.7
2016-Jul-30 00:33N 37°14' E 023°51'2120.5
2016-Jul-29 23:33N 36°54' E 023°56'2120.6
2016-Jul-29 22:33N 36°34' E 023°60'40 3.5
2016-Jul-29 11:12N 37°13' E 023°49'1522.9
2016-Jul-29 10:33N 37°28' E 023°45'2222.4
2016-Jul-29 09:34N 37°49' E 023°37'8 8.1
2016-Jul-29 08:33N 37°57' E 023°38'0 0.0
2016-Jul-29 07:33N 37°57' E 023°38'0 0.0
2016-Jul-29 06:33N 37°57' E 023°38'0 0.0
2016-Jul-29 05:33N 37°57' E 023°38'0 0.0
2016-Jul-29 04:33N 37°57' E 023°38'0 0.0
2016-Jul-29 03:33N 37°57' E 023°38'6 5.7
2016-Jul-29 02:33N 37°51' E 023°39'2120.7
2016-Jul-29 01:34N 37°32' E 023°48'2020.2
2016-Jul-29 00:34N 37°12' E 023°54'2120.0
2016-Jul-28 23:32N 36°52' E 024°01'38 3.0
2016-Jul-28 10:33N 37°29' E 023°46'2222.4
2016-Jul-28 09:33N 37°50' E 023°36'7 7.5
2016-Jul-28 08:33N 37°57' E 023°38'0 0.0
2016-Jul-28 07:34N 37°57' E 023°38'0 0.0
2016-Jul-28 06:34N 37°57' E 023°38'0 0.0
2016-Jul-28 05:34N 37°57' E 023°38'0 0.0
2016-Jul-28 04:34N 37°57' E 023°38'0 0.0
2016-Jul-28 03:34N 37°57' E 023°38'1010.0
2016-Jul-28 02:34N 37°47' E 023°42'2221.6
2016-Jul-28 01:33N 37°26' E 023°49'2121.2
2016-Jul-28 00:33N 37°05' E 023°54'2221.4
2016-Jul-27 23:32N 36°44' E 023°59'28 2.3
2016-Jul-27 11:25N 37°11' E 023°51'2022.5
2016-Jul-27 10:33N 37°30' E 023°45'2222.2
2016-Jul-27 09:34N 37°51' E 023°37'6 5.5
2016-Jul-27 08:34N 37°57' E 023°38'0 0.0
2016-Jul-27 07:34N 37°57' E 023°38'0 0.0
2016-Jul-27 06:33N 37°57' E 023°38'0 0.0
2016-Jul-27 05:33N 37°57' E 023°38'0 0.0
2016-Jul-27 04:33N 37°57' E 023°38'0 0.0
2016-Jul-27 03:34N 37°57' E 023°38'6 6.3
2016-Jul-27 02:34N 37°51' E 023°40'2020.4
2016-Jul-27 01:34N 37°31' E 023°48'2020.4
2016-Jul-27 00:34N 37°11' E 023°52'2720.0
2016-Jul-26 23:14N 36°45' E 023°59'33 1.3
2016-Jul-25 21:32N 37°17' E 023°48'2020.9
2016-Jul-25 20:33N 37°37' E 023°43'1919.0
2016-Jul-25 19:33N 37°56' E 023°37'1 1.4
2016-Jul-25 18:33N 37°57' E 023°38'0 0.0
2016-Jul-25 17:33N 37°57' E 023°38'0 0.0
2016-Jul-25 16:33N 37°57' E 023°38'0 0.0
2016-Jul-25 15:33N 37°57' E 023°38'0 0.0
2016-Jul-25 14:33N 37°57' E 023°38'0 0.0
2016-Jul-25 13:33N 37°57' E 023°38'0 0.0
2016-Jul-25 12:33N 37°57' E 023°38'0 0.0
2016-Jul-25 11:33N 37°57' E 023°38'0 0.0
2016-Jul-25 10:33N 37°57' E 023°38'0 0.0
2016-Jul-25 09:33N 37°57' E 023°38'0 0.0
2016-Jul-25 08:33N 37°57' E 023°38'0 0.0
2016-Jul-25 07:33N 37°57' E 023°38'0 0.0
2016-Jul-25 06:33N 37°57' E 023°38'0 0.0
2016-Jul-25 05:33N 37°57' E 023°38'0 0.0
2016-Jul-25 04:33N 37°57' E 023°38'0 0.0
2016-Jul-25 03:33N 37°57' E 023°38'4 3.8
2016-Jul-25 02:33N 37°53' E 023°37'2020.2
2016-Jul-25 01:33N 37°34' E 023°47'2020.3
2016-Jul-25 00:33N 37°14' E 023°50'3 0.2
2016-Jul-24 11:19N 37°11' E 023°50'1722.9
2016-Jul-24 10:33N 37°28' E 023°45'2222.3
2016-Jul-24 09:34N 37°49' E 023°37'8 7.9
2016-Jul-24 08:33N 37°57' E 023°38'0 0.0
2016-Jul-24 07:33N 37°57' E 023°38'0 0.0
2016-Jul-24 06:33N 37°57' E 023°38'0 0.0
2016-Jul-24 05:33N 37°57' E 023°38'0 0.0
2016-Jul-24 04:33N 37°57' E 023°38'0 0.0
2016-Jul-24 03:33N 37°57' E 023°38'5 5.4
2016-Jul-24 02:33N 37°51' E 023°39'2020.1
2016-Jul-24 01:33N 37°33' E 023°48'2020.4
2016-Jul-24 00:33N 37°13' E 023°55'3 0.2
2016-Jul-23 11:13N 37°14' E 023°51'1522.7
2016-Jul-23 10:33N 37°28' E 023°45'2222.3
2016-Jul-23 09:33N 37°49' E 023°37'8 7.6
2016-Jul-23 08:34N 37°57' E 023°38'0 0.0
2016-Jul-23 07:34N 37°57' E 023°38'0 0.0
2016-Jul-23 06:34N 37°57' E 023°38'0 0.0
2016-Jul-23 04:34N 37°57' E 023°38'0 0.0
2016-Jul-23 03:34N 37°57' E 023°38'4 4.4
2016-Jul-23 02:34N 37°52' E 023°39'2120.9
2016-Jul-23 01:33N 37°33' E 023°47'2020.3
2016-Jul-23 00:33N 37°13' E 023°52'2120.6
2016-Jul-22 23:33N 36°52' E 023°56'20 1.7
2016-Jul-22 11:18N 37°12' E 023°49'1722.7
2016-Jul-22 10:33N 37°29' E 023°44'2222.0
2016-Jul-22 09:33N 37°49' E 023°36'8 7.6
2016-Jul-22 08:33N 37°57' E 023°38'0 0.0
2016-Jul-22 07:33N 37°57' E 023°38'0 0.0
2016-Jul-22 05:33N 37°57' E 023°38'0 0.0
2016-Jul-22 04:33N 37°57' E 023°38'0 0.0
2016-Jul-22 03:33N 37°57' E 023°38'8 8.4
2016-Jul-22 02:34N 37°49' E 023°41'2020.4
2016-Jul-22 01:33N 37°29' E 023°48'2019.7
2016-Jul-22 00:33N 37°10' E 023°53'13 0.5
2016-Jul-20 21:10N 37°22' E 023°48'1320.3
2016-Jul-20 20:33N 37°34' E 023°44'2020.1
2016-Jul-20 19:33N 37°54' E 023°37'3 3.4
2016-Jul-20 18:33N 37°57' E 023°38'0 0.0
2016-Jul-20 17:33N 37°57' E 023°38'0 0.0
2016-Jul-20 16:33N 37°57' E 023°38'0 0.0
2016-Jul-20 15:33N 37°57' E 023°38'0 0.0
2016-Jul-20 14:33N 37°57' E 023°38'0 0.0
2016-Jul-20 13:33N 37°57' E 023°38'0 0.0
2016-Jul-20 12:33N 37°57' E 023°38'0 0.0
2016-Jul-20 11:33N 37°57' E 023°38'0 0.0
2016-Jul-20 10:33N 37°57' E 023°38'  

Dump ship's entire track history